Time;durP1;ratioP1;P1;durP2;ratioP2;P2;SDS_P1;SDS_P2;PMS_P1;PMS_P2;Temp;Humidity;BMP_temperature;BMP_pressure;BME280_temperature;BME280_humidity;BME280_pressure;Samples;Min_cycle;Max_cycle;Signal;HPM_P1;HPM_P2
2021/06/10 00:00:25;;;;;;;3.53;3.33;;;;;23.80;101024.00;;;;2076565;28;20220;-58
2021/06/10 00:01:25;;;;;;;3.10;2.90;;;;;23.80;101024.00;;;;2070020;28;20218;-58
2021/06/10 00:02:26;;;;;;;3.83;3.60;;;;;23.80;101026.00;;;;2078681;28;20235;-57
2021/06/10 00:03:26;;;;;;;3.20;3.00;;;;;23.80;101018.00;;;;2067010;28;20218;-58
2021/06/10 00:04:27;;;;;;;3.07;2.87;;;;;23.80;101023.00;;;;2071767;28;20218;-59
2021/06/10 00:05:27;;;;;;;3.50;3.30;;;;;23.80;101021.00;;;;2078692;28;20272;-59
2021/06/10 00:06:27;;;;;;;3.67;3.47;;;;;23.80;101016.00;;;;2078674;28;20210;-57
2021/06/10 00:07:28;;;;;;;3.60;3.30;;;;;23.80;101024.00;;;;2071424;28;20297;-57
2021/06/10 00:08:28;;;;;;;3.40;3.20;;;;;23.80;101017.00;;;;2074414;28;20205;-59
2021/06/10 00:09:29;;;;;;;3.73;3.50;;;;;23.80;101026.00;;;;2078933;28;20304;-57
2021/06/10 00:10:30;;;;;;;3.30;3.10;;;;;23.80;101034.00;;;;2079156;28;20213;-59
2021/06/10 00:11:30;;;;;;;3.35;3.15;;;;;23.80;101025.00;;;;2072655;28;20309;-57
2021/06/10 00:12:30;;;;;;;3.03;2.83;;;;;23.80;101019.00;;;;2070960;28;20218;-58
2021/06/10 00:13:31;;;;;;;3.37;3.17;;;;;23.80;101020.00;;;;2070553;28;20221;-55
2021/06/10 00:14:31;;;;;;;3.20;3.00;;;;;23.80;101022.00;;;;2074771;28;20214;-58
2021/06/10 00:15:34;;;;;;;3.43;3.23;;;;;23.80;101016.00;;;;2072868;28;20718;-58
2021/06/10 00:16:34;;;;;;;3.55;3.35;;;;;23.80;101020.00;;;;2073425;28;20214;-56
2021/06/10 00:17:35;;;;;;;3.60;3.30;;;;;23.80;101031.00;;;;2071187;28;20221;-59
2021/06/10 00:18:35;;;;;;;3.50;3.30;;;;;23.80;101022.00;;;;2070622;28;20225;-58
2021/06/10 00:19:35;;;;;;;3.30;3.10;;;;;23.80;101027.00;;;;2077865;28;20217;-58
2021/06/10 00:20:36;;;;;;;3.03;2.83;;;;;23.80;101022.00;;;;2077737;28;20251;-56
2021/06/10 00:21:37;;;;;;;3.30;3.10;;;;;23.80;101029.00;;;;2069847;28;20224;-58
2021/06/10 00:22:37;;;;;;;3.27;3.07;;;;;23.80;101025.00;;;;2071150;28;20221;-58
2021/06/10 00:23:37;;;;;;;3.30;3.10;;;;;23.80;101024.00;;;;2070703;28;20214;-57
2021/06/10 00:24:38;;;;;;;3.40;3.10;;;;;23.80;101024.00;;;;2070885;28;20686;-57
2021/06/10 00:25:38;;;;;;;3.63;3.43;;;;;23.80;101022.00;;;;2070493;28;20218;-56
2021/06/10 00:26:39;;;;;;;3.50;3.30;;;;;23.80;101022.00;;;;2071049;28;20575;-57
2021/06/10 00:27:39;;;;;;;3.30;3.10;;;;;23.80;101029.00;;;;2071011;28;20549;-58
2021/06/10 00:28:39;;;;;;;3.20;3.00;;;;;23.80;101024.00;;;;2072084;28;20295;-59
2021/06/10 00:29:40;;;;;;;3.60;3.40;;;;;23.80;101030.00;;;;2072445;28;20218;-57
2021/06/10 00:30:40;;;;;;;3.20;3.00;;;;;23.70;101027.00;;;;2078340;28;20244;-58
2021/06/10 00:31:41;;;;;;;3.20;3.00;;;;;23.80;101022.00;;;;2079890;28;20214;-56
2021/06/10 00:32:41;;;;;;;3.20;3.00;;;;;23.70;101019.00;;;;2080916;28;20304;-58
2021/06/10 00:33:42;;;;;;;3.17;2.97;;;;;23.80;101034.00;;;;2079669;28;20719;-58
2021/06/10 00:34:42;;;;;;;3.10;2.90;;;;;23.80;101026.00;;;;2079942;28;20217;-59
2021/06/10 00:35:42;;;;;;;3.33;3.10;;;;;23.80;101022.00;;;;2080575;28;20321;-58
2021/06/10 00:36:43;;;;;;;3.47;3.20;;;;;23.80;101031.00;;;;2080843;28;20279;-57
2021/06/10 00:37:43;;;;;;;3.20;2.90;;;;;23.80;101022.00;;;;2080101;28;20296;-58
2021/06/10 00:38:46;;;;;;;3.10;2.90;;;;;23.80;101023.00;;;;2079834;28;20790;-55
2021/06/10 00:39:46;;;;;;;3.67;3.47;;;;;23.80;101034.00;;;;2080024;28;20209;-58
2021/06/10 00:40:46;;;;;;;3.73;3.53;;;;;23.80;101025.00;;;;2072418;28;20210;-58
2021/06/10 00:41:47;;;;;;;3.20;3.00;;;;;23.80;101026.00;;;;2071775;28;20214;-58
2021/06/10 00:42:47;;;;;;;2.90;2.80;;;;;23.70;101022.00;;;;2076169;28;20275;-57
2021/06/10 00:43:48;;;;;;;3.00;2.87;;;;;23.80;101022.00;;;;2071686;28;20214;-57
2021/06/10 00:44:48;;;;;;;3.23;3.03;;;;;23.80;101028.00;;;;2073008;28;20889;-58
2021/06/10 00:45:49;;;;;;;3.30;3.10;;;;;23.80;101024.00;;;;2072425;28;20210;-56
2021/06/10 00:46:49;;;;;;;3.23;3.03;;;;;23.80;101029.00;;;;2072548;28;20214;-56
2021/06/10 00:47:50;;;;;;;3.03;2.83;;;;;23.80;101028.00;;;;2072516;28;20210;-57
2021/06/10 00:48:50;;;;;;;3.33;3.13;;;;;23.80;101026.00;;;;2072249;28;20682;-57
2021/06/10 00:49:51;;;;;;;3.20;3.00;;;;;23.70;101037.00;;;;2075418;28;20293;-58
2021/06/10 00:50:51;;;;;;;3.27;3.07;;;;;23.70;101023.00;;;;2080535;28;20205;-55
2021/06/10 00:51:52;;;;;;;2.87;2.77;;;;;23.70;101021.00;;;;2078578;28;20280;-63
2021/06/10 00:52:52;;;;;;;3.53;3.33;;;;;23.70;101021.00;;;;2071769;28;20222;-60
2021/06/10 00:53:52;;;;;;;3.03;2.83;;;;;23.70;101023.00;;;;2070691;28;20324;-60
2021/06/10 00:54:53;;;;;;;3.30;3.10;;;;;23.70;101017.00;;;;2077827;28;20213;-59
2021/06/10 00:55:55;;;;;;;3.13;2.93;;;;;23.60;101018.00;;;;2077129;28;20583;-55
2021/06/10 00:56:56;;;;;;;3.00;2.85;;;;;23.70;101020.00;;;;2079400;28;20220;-58
2021/06/10 00:57:56;;;;;;;3.30;3.10;;;;;23.70;101024.00;;;;2080118;28;20212;-56
2021/06/10 00:58:56;;;;;;;3.47;3.27;;;;;23.70;101016.00;;;;2074676;28;20218;-56
2021/06/10 00:59:57;;;;;;;3.10;2.90;;;;;23.70;101016.00;;;;2072252;28;20210;-58
2021/06/10 01:00:57;;;;;;;3.00;2.80;;;;;23.70;101027.00;;;;2071986;28;20683;-59
2021/06/10 01:01:57;;;;;;;2.70;2.60;;;;;23.70;101019.00;;;;2071133;28;20321;-56
2021/06/10 01:02:58;;;;;;;3.03;2.83;;;;;23.70;101026.00;;;;2072245;28;20210;-56
2021/06/10 01:03:58;;;;;;;3.03;2.83;;;;;23.70;101023.00;;;;2072336;28;20301;-54
2021/06/10 01:05:00;;;;;;;3.50;3.30;;;;;23.70;101025.00;;;;2073184;28;20276;-58
2021/06/10 01:06:03;;;;;;;2.95;2.75;;;;;23.70;101023.00;;;;2080389;28;20789;-57
2021/06/10 01:07:16;;;;;;;2.90;2.70;;;;;23.70;101019.00;;;;2079636;28;20221;-55
2021/06/10 01:08:24;;;;;;;3.13;2.92;;;;;23.70;101024.00;;;;2078962;28;20221;-57
2021/06/10 01:09:45;;;;;;;2.97;2.78;;;;;23.70;101029.00;;;;2070815;28;20225;-63
2021/06/10 01:10:59;;;;;;;3.38;3.17;;;;;23.70;101027.00;;;;2070708;28;20229;-58
2021/06/10 01:12:04;;;;;;;2.90;2.75;;;;;23.70;101020.00;;;;2072401;28;20217;-58
2021/06/10 01:13:37;;;;;;;3.25;3.05;;;;;23.70;101022.00;;;;2079287;28;20217;-58
2021/06/10 01:14:43;;;;;;;2.72;2.63;;;;;23.70;101027.00;;;;2066620;28;20260;-58
2021/06/10 01:15:43;;;;;;;3.25;3.00;;;;;23.70;101018.00;;;;2074118;28;20229;-56
2021/06/10 01:16:45;;;;;;;3.23;3.03;;;;;23.70;101012.00;;;;2073008;28;20297;-55
2021/06/10 01:17:47;;;;;;;2.75;2.55;;;;;23.70;101020.00;;;;2071027;28;20214;-58
2021/06/10 01:18:47;;;;;;;2.80;2.70;;;;;23.70;101015.00;;;;2071073;28;20357;-59
2021/06/10 01:19:59;;;;;;;2.90;2.70;;;;;23.70;101010.00;;;;2070859;28;20690;-58
2021/06/10 01:21:00;;;;;;;3.72;3.53;;;;;23.70;101014.00;;;;2069923;28;20919;-56
2021/06/10 01:22:01;;;;;;;2.80;2.70;;;;;23.70;101011.00;;;;2070630;28;20296;-56
2021/06/10 01:23:10;;;;;;;2.60;2.50;;;;;23.70;101012.00;;;;2074558;28;20967;-59
2021/06/10 01:24:31;;;;;;;3.22;3.03;;;;;23.70;101010.00;;;;2079056;28;20249;-54
2021/06/10 01:25:35;;;;;;;3.25;3.05;;;;;23.70;101014.00;;;;2079292;28;20214;-59
2021/06/10 01:26:39;;;;;;;3.33;3.13;;;;;23.70;101010.00;;;;2080069;28;20784;-57
2021/06/10 01:27:45;;;;;;;2.45;2.35;;;;;23.70;101006.00;;;;2079658;28;20209;-58
2021/06/10 01:28:46;;;;;;;2.90;2.70;;;;;23.70;101009.00;;;;2079151;28;20585;-57
2021/06/10 01:29:48;;;;;;;2.90;2.80;;;;;23.70;101010.00;;;;2080215;28;20220;-58
2021/06/10 01:30:56;;;;;;;3.10;2.90;;;;;23.70;101013.00;;;;2081023;28;20270;-57
2021/06/10 01:31:57;;;;;;;2.90;2.70;;;;;23.70;101009.00;;;;2070537;28;20232;-57
2021/06/10 01:32:58;;;;;;;3.10;2.90;;;;;23.70;101015.00;;;;2079567;28;20217;-58
2021/06/10 01:34:01;;;;;;;2.70;2.60;;;;;23.70;100999.00;;;;2073856;28;20225;-63
2021/06/10 01:35:02;;;;;;;3.10;2.85;;;;;23.70;101013.00;;;;2063175;28;20211;-58
2021/06/10 01:36:10;;;;;;;3.17;2.97;;;;;23.70;100999.00;;;;2078267;28;20225;-58
2021/06/10 01:37:10;;;;;;;3.20;3.00;;;;;23.70;101007.00;;;;2079469;28;20256;-54
2021/06/10 01:38:11;;;;;;;3.23;3.03;;;;;23.70;101002.00;;;;2087866;28;20303;-56
2021/06/10 01:39:12;;;;;;;2.97;2.77;;;;;23.70;101003.00;;;;2076943;28;20217;-59
2021/06/10 01:40:13;;;;;;;2.78;2.65;;;;;23.70;101001.00;;;;2078146;28;20348;-57
2021/06/10 01:41:13;;;;;;;2.87;2.67;;;;;23.70;101004.00;;;;2078197;28;20275;-58
2021/06/10 01:42:14;;;;;;;3.00;2.80;;;;;23.70;100992.00;;;;2078512;28;20330;-57
2021/06/10 01:43:14;;;;;;;2.60;2.50;;;;;23.70;101002.00;;;;2071082;28;20218;-58
2021/06/10 01:44:14;;;;;;;2.73;2.63;;;;;23.70;100995.00;;;;2070738;28;20219;-55
2021/06/10 01:45:15;;;;;;;2.90;2.70;;;;;23.70;100995.00;;;;2079281;28;20244;-58
2021/06/10 01:46:15;;;;;;;2.90;2.70;;;;;23.70;101001.00;;;;2070997;28;20256;-57
2021/06/10 01:47:16;;;;;;;2.97;2.77;;;;;23.70;100996.00;;;;2068096;28;20219;-57
2021/06/10 01:48:17;;;;;;;2.47;2.37;;;;;23.70;100998.00;;;;2063280;28;20215;-58
2021/06/10 01:49:18;;;;;;;3.03;2.83;;;;;23.70;100993.00;;;;2078452;28;20457;-59
2021/06/10 01:50:20;;;;;;;2.80;2.60;;;;;23.70;100991.00;;;;2078849;28;20317;-58
2021/06/10 01:51:22;;;;;;;2.70;2.50;;;;;23.70;100997.00;;;;2077783;28;20210;-58
2021/06/10 01:52:23;;;;;;;2.90;2.70;;;;;23.70;100997.00;;;;2071473;28;20321;-58
2021/06/10 01:53:23;;;;;;;2.83;2.63;;;;;23.70;101005.00;;;;2074842;28;20217;-56
2021/06/10 01:54:23;;;;;;;3.00;2.80;;;;;23.70;100998.00;;;;2071910;28;20561;-56
2021/06/10 01:55:27;;;;;;;3.00;2.80;;;;;23.70;100991.00;;;;2071020;28;20920;-56
2021/06/10 01:56:28;;;;;;;2.67;2.47;;;;;23.70;100994.00;;;;2079540;28;20245;-57
2021/06/10 01:57:28;;;;;;;2.83;2.63;;;;;23.70;100997.00;;;;2087070;28;20370;-58
2021/06/10 01:58:28;;;;;;;3.17;2.97;;;;;23.70;100998.00;;;;2079384;28;20222;-57
2021/06/10 01:59:30;;;;;;;2.90;2.70;;;;;23.70;100995.00;;;;2070571;28;20282;-55
2021/06/10 02:00:30;;;;;;;2.92;2.72;;;;;23.70;100997.00;;;;2070944;28;20222;-58
2021/06/10 02:01:31;;;;;;;3.10;2.90;;;;;23.70;100994.00;;;;2069312;28;20274;-58
2021/06/10 02:02:33;;;;;;;2.80;2.70;;;;;23.70;100947.00;;;;2070886;28;20206;-57
2021/06/10 02:03:33;;;;;;;2.30;2.20;;;;;23.70;100993.00;;;;2062799;28;20317;-56
2021/06/10 02:04:33;;;;;;;3.10;2.90;;;;;23.70;100991.00;;;;2060273;28;20707;-58
2021/06/10 02:05:35;;;;;;;3.03;2.83;;;;;23.70;100987.00;;;;2070471;28;20610;-55
2021/06/10 02:06:36;;;;;;;2.60;2.50;;;;;23.70;100994.00;;;;2089854;28;20219;-57
2021/06/10 02:07:41;;;;;;;3.00;2.80;;;;;23.70;100990.00;;;;2070205;28;20206;-58
2021/06/10 02:08:41;;;;;;;2.67;2.38;;;;;23.70;100986.00;;;;2071225;28;20322;-57
2021/06/10 02:09:42;;;;;;;2.90;2.70;;;;;23.70;100985.00;;;;2079380;28;20764;-58
2021/06/10 02:10:43;;;;;;;3.10;2.90;;;;;23.70;100991.00;;;;2070706;28;20207;-58
2021/06/10 02:11:45;;;;;;;2.95;2.75;;;;;23.70;100991.00;;;;2062646;28;20270;-58
2021/06/10 02:12:45;;;;;;;2.75;2.55;;;;;23.70;100991.00;;;;2087586;28;20862;-57
2021/06/10 02:13:47;;;;;;;2.67;2.57;;;;;23.70;100993.00;;;;2087007;28;20331;-55
2021/06/10 02:14:47;;;;;;;3.15;2.95;;;;;23.70;100994.00;;;;2086737;28;20205;-58
2021/06/10 02:15:47;;;;;;;2.50;2.40;;;;;23.70;100989.00;;;;2082660;28;20224;-56
2021/06/10 02:16:48;;;;;;;3.07;2.87;;;;;23.70;100988.00;;;;2081973;28;20212;-58
2021/06/10 02:17:48;;;;;;;2.97;2.77;;;;;23.70;100985.00;;;;2076553;28;20209;-59
2021/06/10 02:18:49;;;;;;;2.63;2.50;;;;;23.70;100988.00;;;;2070118;28;20308;-58
2021/06/10 02:19:49;;;;;;;2.83;2.73;;;;;23.70;100980.00;;;;2078982;28;20233;-59
2021/06/10 02:20:50;;;;;;;2.87;2.67;;;;;23.70;100985.00;;;;2079729;28;20356;-56
2021/06/10 02:21:50;;;;;;;2.60;2.50;;;;;23.70;100985.00;;;;2077405;28;20714;-57
2021/06/10 02:22:50;;;;;;;3.10;2.90;;;;;23.70;100984.00;;;;2071035;28;20671;-59
2021/06/10 02:23:51;;;;;;;2.77;2.63;;;;;23.70;100983.00;;;;2071031;28;20207;-57
2021/06/10 02:24:52;;;;;;;2.97;2.77;;;;;23.70;100991.00;;;;2070498;28;20210;-58
2021/06/10 02:25:52;;;;;;;2.80;2.60;;;;;23.70;100987.00;;;;2076874;28;20292;-56
2021/06/10 02:26:53;;;;;;;3.00;2.80;;;;;23.70;100984.00;;;;2072497;28;20226;-57
2021/06/10 02:27:53;;;;;;;2.97;2.77;;;;;23.70;100980.00;;;;2071355;28;20214;-56
2021/06/10 02:28:53;;;;;;;3.13;2.93;;;;;23.50;100979.00;;;;2071376;28;20218;-57
2021/06/10 02:29:54;;;;;;;2.93;2.80;;;;;23.70;100974.00;;;;2071591;28;20241;-54
2021/06/10 02:30:54;;;;;;;3.03;2.83;;;;;23.70;100978.00;;;;2071464;28;20214;-55
2021/06/10 02:31:54;;;;;;;2.93;2.73;;;;;23.70;100978.00;;;;2070654;28;20297;-57
2021/06/10 02:32:55;;;;;;;3.00;2.80;;;;;23.70;100975.00;;;;2075075;28;20227;-57
2021/06/10 02:33:55;;;;;;;2.67;2.57;;;;;23.70;100977.00;;;;2079576;28;20213;-58
2021/06/10 02:34:55;;;;;;;2.80;2.70;;;;;23.70;100981.00;;;;2079424;28;20218;-59
2021/06/10 02:35:56;;;;;;;3.20;3.00;;;;;23.70;100987.00;;;;2087186;28;20217;-58
2021/06/10 02:36:56;;;;;;;2.60;2.40;;;;;23.70;100984.00;;;;2095607;28;20204;-55
2021/06/10 02:37:58;;;;;;;3.70;2.57;;;;;23.70;100980.00;;;;2078760;28;20309;-55
2021/06/10 02:39:02;;;;;;;2.63;2.53;;;;;23.70;100982.00;;;;2070993;28;20252;-57
2021/06/10 02:40:04;;;;;;;3.25;3.05;;;;;23.70;100979.00;;;;2075864;28;21112;-54
2021/06/10 02:41:05;;;;;;;2.67;2.58;;;;;23.70;100983.00;;;;2069316;28;20234;-57
2021/06/10 02:42:05;;;;;;;2.70;2.50;;;;;23.70;100978.00;;;;2062855;28;20691;-59
2021/06/10 02:43:06;;;;;;;2.90;2.70;;;;;23.70;100972.00;;;;2079141;28;20385;-58
2021/06/10 02:44:07;;;;;;;2.60;2.50;;;;;23.70;100976.00;;;;2072864;28;20210;-55
2021/06/10 02:45:07;;;;;;;3.07;2.87;;;;;23.70;100983.00;;;;2072467;28;20226;-58
2021/06/10 02:46:09;;;;;;;2.67;2.47;;;;;23.70;100974.00;;;;2080162;28;20209;-58
2021/06/10 02:47:10;;;;;;;2.72;2.53;;;;;23.70;100978.00;;;;2071651;28;20519;-56
2021/06/10 02:48:10;;;;;;;3.03;2.83;;;;;23.70;100975.00;;;;2070364;28;20305;-58
2021/06/10 02:49:11;;;;;;;2.60;2.50;;;;;23.70;100984.00;;;;2070358;28;20456;-61
2021/06/10 02:50:12;;;;;;;2.90;2.70;;;;;23.70;100980.00;;;;2070756;28;20290;-59
2021/06/10 02:51:12;;;;;;;2.80;2.67;;;;;23.70;100979.00;;;;2060715;28;20219;-55
2021/06/10 02:52:17;;;;;;;3.23;3.03;;;;;23.70;100980.00;;;;2078061;28;20305;-57
2021/06/10 02:53:18;;;;;;;3.13;2.90;;;;;23.70;100983.00;;;;2078319;28;20221;-57
2021/06/10 02:54:19;;;;;;;2.90;2.70;;;;;23.70;100976.00;;;;2070688;28;20833;-59
2021/06/10 02:55:19;;;;;;;2.63;2.53;;;;;23.70;100976.00;;;;2070259;28;20325;-58
2021/06/10 02:56:20;;;;;;;3.00;2.80;;;;;23.70;100975.00;;;;2071093;28;20329;-59
2021/06/10 02:57:20;;;;;;;3.27;3.07;;;;;23.70;100976.00;;;;2071533;28;20588;-59
2021/06/10 02:58:21;;;;;;;2.43;2.30;;;;;23.70;100971.00;;;;2070691;28;20718;-57
2021/06/10 02:59:22;;;;;;;2.73;2.57;;;;;23.60;100971.00;;;;2069960;28;20470;-59
2021/06/10 03:00:24;;;;;;;2.80;2.70;;;;;23.70;100922.00;;;;2077670;28;20218;-59
2021/06/10 03:01:24;;;;;;;3.00;2.80;;;;;23.60;100977.00;;;;2069539;28;20225;-58
2021/06/10 03:02:24;;;;;;;2.90;2.70;;;;;23.70;100969.00;;;;2070945;28;20218;-58
2021/06/10 03:03:25;;;;;;;2.77;2.63;;;;;23.60;100968.00;;;;2078747;28;20203;-56
2021/06/10 03:04:25;;;;;;;2.60;2.50;;;;;23.70;100985.00;;;;2067169;28;20202;-56
2021/06/10 03:05:26;;;;;;;2.77;2.67;;;;;23.70;100977.00;;;;2074940;28;20203;-58
2021/06/10 03:06:26;;;;;;;3.03;2.83;;;;;23.70;100968.00;;;;2087067;28;20205;-59
2021/06/10 03:07:27;;;;;;;3.00;2.80;;;;;23.60;100972.00;;;;2070720;28;20445;-54
2021/06/10 03:08:27;;;;;;;2.90;2.70;;;;;23.70;100973.00;;;;2078848;28;20703;-56
2021/06/10 03:09:28;;;;;;;3.20;3.00;;;;;23.60;100971.00;;;;2086874;28;20571;-58
2021/06/10 03:10:30;;;;;;;2.87;2.70;;;;;23.70;100972.00;;;;2070332;28;20202;-57
2021/06/10 03:11:30;;;;;;;2.83;2.63;;;;;23.70;100971.00;;;;2069643;28;20226;-59
2021/06/10 03:12:30;;;;;;;2.63;2.50;;;;;23.70;100968.00;;;;2079053;28;20221;-58
2021/06/10 03:13:31;;;;;;;3.00;2.80;;;;;23.70;100973.00;;;;2086828;28;20209;-58
2021/06/10 03:14:31;;;;;;;2.87;2.70;;;;;23.70;100975.00;;;;2071340;28;20206;-58
2021/06/10 03:15:32;;;;;;;2.80;2.60;;;;;23.70;100980.00;;;;2062655;28;20219;-57
2021/06/10 03:16:32;;;;;;;3.03;2.83;;;;;23.70;100976.00;;;;2070555;28;20211;-57
2021/06/10 03:17:33;;;;;;;2.80;2.60;;;;;23.70;100967.00;;;;2070479;28;20677;-57
2021/06/10 03:18:33;;;;;;;3.13;2.93;;;;;23.70;100971.00;;;;2062599;28;20234;-54
2021/06/10 03:19:33;;;;;;;2.70;2.60;;;;;23.70;100972.00;;;;2062268;28;20847;-56
2021/06/10 03:20:34;;;;;;;2.50;2.40;;;;;23.70;100968.00;;;;2070507;28;20293;-55
2021/06/10 03:21:34;;;;;;;2.77;2.67;;;;;23.70;100973.00;;;;2066213;28;20221;-57
2021/06/10 03:22:35;;;;;;;3.20;3.00;;;;;23.70;100968.00;;;;2078778;28;22109;-58
2021/06/10 03:23:35;;;;;;;2.67;2.53;;;;;23.60;100982.00;;;;2095328;28;20220;-58
2021/06/10 03:24:36;;;;;;;2.90;2.70;;;;;23.60;100981.00;;;;2086928;28;20221;-56
2021/06/10 03:25:36;;;;;;;3.07;2.87;;;;;23.70;100970.00;;;;2074945;28;20222;-56
2021/06/10 03:26:36;;;;;;;3.13;2.93;;;;;23.70;100972.00;;;;2078697;28;20221;-56
2021/06/10 03:27:37;;;;;;;2.80;2.70;;;;;23.70;100967.00;;;;2086919;28;20328;-59
2021/06/10 03:28:37;;;;;;;3.07;2.87;;;;;23.70;100972.00;;;;2078849;28;20217;-58
2021/06/10 03:29:38;;;;;;;2.73;2.63;;;;;23.60;100975.00;;;;2070237;28;20210;-56
2021/06/10 03:30:38;;;;;;;3.10;2.90;;;;;23.60;100978.00;;;;2077223;28;20216;-56
2021/06/10 03:31:38;;;;;;;2.80;2.60;;;;;23.60;100980.00;;;;2078270;28;20649;-57
2021/06/10 03:32:39;;;;;;;2.47;2.37;;;;;23.60;100974.00;;;;2086803;28;20213;-57
2021/06/10 03:33:39;;;;;;;3.13;2.93;;;;;23.60;100983.00;;;;2078746;28;20221;-57
2021/06/10 03:34:39;;;;;;;3.03;2.83;;;;;23.60;100977.00;;;;2070576;28;20572;-59
2021/06/10 03:35:40;;;;;;;3.20;3.00;;;;;23.60;100970.00;;;;2078538;28;20226;-57
2021/06/10 03:36:40;;;;;;;3.20;3.00;;;;;23.70;100976.00;;;;2078739;28;20221;-57
2021/06/10 03:37:41;;;;;;;2.87;2.67;;;;;23.70;100973.00;;;;2074001;28;20218;-59
2021/06/10 03:38:41;;;;;;;3.00;2.80;;;;;23.60;100976.00;;;;2070255;28;20210;-59
2021/06/10 03:39:42;;;;;;;3.10;2.90;;;;;23.60;100980.00;;;;2070582;28;20294;-59
2021/06/10 03:40:47;;;;;;;2.57;2.47;;;;;23.70;100971.00;;;;2078446;28;20221;-55
2021/06/10 03:41:48;;;;;;;3.30;3.10;;;;;23.60;100965.00;;;;2094215;28;20208;-58
2021/06/10 03:42:49;;;;;;;2.83;2.63;;;;;23.60;100971.00;;;;2082937;28;20582;-63
2021/06/10 03:43:49;;;;;;;3.10;2.90;;;;;23.60;100965.00;;;;2070616;28;20272;-56
2021/06/10 03:44:49;;;;;;;2.77;2.57;;;;;23.60;100964.00;;;;2062170;28;20218;-58
2021/06/10 03:45:50;;;;;;;3.10;2.90;;;;;23.70;100966.00;;;;2073204;28;20214;-57
2021/06/10 03:46:50;;;;;;;2.87;2.67;;;;;23.70;100964.00;;;;2072497;28;20289;-57
2021/06/10 03:47:51;;;;;;;3.10;2.90;;;;;23.70;100969.00;;;;2085184;28;20212;-57
2021/06/10 03:48:51;;;;;;;3.13;2.93;;;;;23.70;100966.00;;;;2081743;28;20706;-57
2021/06/10 03:49:51;;;;;;;3.03;2.83;;;;;23.70;100969.00;;;;2078352;28;20725;-59
2021/06/10 03:50:52;;;;;;;2.50;2.40;;;;;23.70;100956.00;;;;2078446;28;20690;-59
2021/06/10 03:51:53;;;;;;;2.73;2.63;;;;;23.70;100965.00;;;;2077391;28;20224;-55
2021/06/10 03:52:53;;;;;;;2.88;2.67;;;;;23.60;100955.00;;;;2079032;28;20340;-57
2021/06/10 03:53:54;;;;;;;3.00;2.80;;;;;23.70;100957.00;;;;2078903;28;20379;-54
2021/06/10 03:54:58;;;;;;;3.15;2.95;;;;;23.70;100960.00;;;;2079044;28;20640;-56
2021/06/10 03:55:59;;;;;;;2.95;2.75;;;;;23.70;100965.00;;;;2078638;28;20249;-57
2021/06/10 03:56:59;;;;;;;3.20;3.00;;;;;23.60;100958.00;;;;2079020;28;20220;-57
2021/06/10 03:58:00;;;;;;;3.20;3.00;;;;;23.60;100959.00;;;;2079133;28;20860;-59
2021/06/10 03:59:00;;;;;;;3.07;2.90;;;;;23.60;100964.00;;;;2079032;28;20650;-56
2021/06/10 04:00:02;;;;;;;2.90;2.70;;;;;23.60;100965.00;;;;2078963;28;20292;-56
2021/06/10 04:01:03;;;;;;;2.90;2.70;;;;;23.60;100958.00;;;;2077634;28;20217;-54
2021/06/10 04:02:03;;;;;;;2.80;2.70;;;;;23.60;100954.00;;;;2079020;28;20210;-58
2021/06/10 04:03:04;;;;;;;3.07;2.87;;;;;23.60;100961.00;;;;2079462;28;20710;-55
2021/06/10 04:04:04;;;;;;;2.90;2.70;;;;;23.60;100962.00;;;;2080779;28;20708;-58
2021/06/10 04:05:05;;;;;;;2.80;2.60;;;;;23.70;100965.00;;;;2080800;28;20719;-55
2021/06/10 04:06:05;;;;;;;2.67;2.57;;;;;23.60;100955.00;;;;2080782;28;20296;-58
2021/06/10 04:07:06;;;;;;;3.10;2.90;;;;;23.60;100964.00;;;;2079986;28;20212;-58
2021/06/10 04:08:06;;;;;;;3.03;2.83;;;;;23.60;100968.00;;;;2079723;28;20209;-59
2021/06/10 04:09:07;;;;;;;3.20;3.00;;;;;23.60;100951.00;;;;2079240;28;20306;-59
2021/06/10 04:10:08;;;;;;;2.90;2.70;;;;;23.60;100957.00;;;;2080200;28;20216;-58
2021/06/10 04:11:08;;;;;;;3.00;2.80;;;;;23.60;100963.00;;;;2079109;28;20470;-59
2021/06/10 04:12:09;;;;;;;2.90;2.70;;;;;23.60;100969.00;;;;2080068;28;20657;-59
2021/06/10 04:13:09;;;;;;;3.03;2.83;;;;;23.60;100967.00;;;;2072322;28;20206;-56
2021/06/10 04:14:10;;;;;;;2.70;2.50;;;;;23.70;100968.00;;;;2073401;28;20317;-58
2021/06/10 04:15:10;;;;;;;3.40;3.20;;;;;23.70;100971.00;;;;2073350;28;20210;-59
2021/06/10 04:16:12;;;;;;;3.10;2.90;;;;;23.60;100981.00;;;;2073150;28;20247;-58
2021/06/10 04:17:12;;;;;;;3.28;3.08;;;;;23.60;100968.00;;;;2072562;28;20453;-55
2021/06/10 04:18:18;;;;;;;2.63;2.53;;;;;23.60;100973.00;;;;2072659;28;20221;-56
2021/06/10 04:19:18;;;;;;;3.28;3.08;;;;;23.60;100969.00;;;;2069089;28;20226;-58
2021/06/10 04:20:18;;;;;;;2.97;2.77;;;;;23.60;100976.00;;;;2072650;28;20283;-58
2021/06/10 04:21:19;;;;;;;3.40;3.20;;;;;23.60;100978.00;;;;2071655;28;20230;-58
2021/06/10 04:22:19;;;;;;;3.20;3.00;;;;;23.60;100969.00;;;;2072419;28;20222;-58
2021/06/10 04:23:19;;;;;;;2.90;2.70;;;;;23.60;100977.00;;;;2072658;28;20229;-59
2021/06/10 04:24:20;;;;;;;2.97;2.80;;;;;23.70;100975.00;;;;2072650;28;20225;-56
2021/06/10 04:25:21;;;;;;;3.20;3.00;;;;;23.70;100981.00;;;;2072337;28;20694;-60
2021/06/10 04:26:21;;;;;;;3.37;3.17;;;;;23.70;100980.00;;;;2072463;28;20305;-60
2021/06/10 04:27:21;;;;;;;2.80;2.60;;;;;23.60;100980.00;;;;2072203;28;20221;-57
2021/06/10 04:28:22;;;;;;;5.90;3.30;;;;;23.60;100985.00;;;;2071600;28;20216;-58
2021/06/10 04:29:22;;;;;;;3.23;3.03;;;;;23.70;100978.00;;;;2071915;28;20221;-58
2021/06/10 04:30:22;;;;;;;3.00;2.80;;;;;23.70;100974.00;;;;2071725;28;20291;-58
2021/06/10 04:31:23;;;;;;;3.13;2.93;;;;;23.60;100975.00;;;;2071077;28;20222;-54
2021/06/10 04:32:23;;;;;;;3.13;2.93;;;;;23.60;100989.00;;;;2072509;28;20225;-57
2021/06/10 04:33:23;;;;;;;3.00;2.90;;;;;23.60;100974.00;;;;2072309;28;20722;-56
2021/06/10 04:34:24;;;;;;;3.30;3.10;;;;;23.60;100971.00;;;;2072630;28;20213;-57
2021/06/10 04:35:24;;;;;;;2.90;2.70;;;;;23.70;100951.00;;;;2072394;28;20222;-58
2021/06/10 04:36:25;;;;;;;3.20;3.00;;;;;23.70;100978.00;;;;2071981;28;20230;-58
2021/06/10 04:37:25;;;;;;;3.50;3.30;;;;;23.70;100979.00;;;;2072519;28;20214;-59
2021/06/10 04:38:25;;;;;;;3.40;3.20;;;;;23.70;100975.00;;;;2072374;28;20217;-59
2021/06/10 04:39:26;;;;;;;3.27;3.07;;;;;23.70;100969.00;;;;2073829;28;20221;-56
2021/06/10 04:40:26;;;;;;;3.60;3.40;;;;;23.70;100968.00;;;;2080457;28;20210;-57
2021/06/10 04:41:26;;;;;;;3.13;2.93;;;;;23.70;100972.00;;;;2079643;28;20240;-58
2021/06/10 04:42:27;;;;;;;3.40;3.20;;;;;23.70;100973.00;;;;2086169;28;20254;-58
2021/06/10 04:43:27;;;;;;;3.10;2.90;;;;;23.70;100967.00;;;;2096245;28;20208;-58
2021/06/10 04:44:27;;;;;;;3.57;3.37;;;;;23.70;100973.00;;;;2073661;28;20225;-59
2021/06/10 04:45:28;;;;;;;3.27;3.07;;;;;23.70;100970.00;;;;2072251;28;20810;-57
2021/06/10 04:46:28;;;;;;;3.20;3.00;;;;;23.70;100971.00;;;;2075346;28;20205;-56
2021/06/10 04:47:28;;;;;;;3.10;2.90;;;;;23.70;100974.00;;;;2074763;28;20210;-62
2021/06/10 04:48:29;;;;;;;3.33;3.13;;;;;23.70;100977.00;;;;2080512;28;20236;-58
2021/06/10 04:49:31;;;;;;;3.20;3.00;;;;;23.70;100979.00;;;;2080269;28;20429;-59
2021/06/10 04:50:34;;;;;;;3.33;3.13;;;;;23.70;100969.00;;;;2074674;28;20210;-59
2021/06/10 04:51:34;;;;;;;3.45;3.22;;;;;23.70;100978.00;;;;2070840;28;20833;-57
2021/06/10 04:52:34;;;;;;;3.27;3.07;;;;;23.70;100974.00;;;;2071773;28;20229;-56
2021/06/10 04:53:35;;;;;;;3.20;3.00;;;;;23.70;100974.00;;;;2072264;28;20265;-58
2021/06/10 04:54:35;;;;;;;3.60;3.30;;;;;23.70;100973.00;;;;2072157;28;20210;-58
2021/06/10 04:55:36;;;;;;;3.53;3.33;;;;;23.70;100976.00;;;;2072123;28;20229;-58
2021/06/10 04:56:36;;;;;;;3.50;3.30;;;;;23.70;100977.00;;;;2072314;28;20216;-59
2021/06/10 04:57:36;;;;;;;3.30;3.10;;;;;23.70;100973.00;;;;2072346;28;20233;-58
2021/06/10 04:58:37;;;;;;;3.20;3.00;;;;;23.70;100979.00;;;;2072189;28;20203;-58
2021/06/10 04:59:37;;;;;;;3.10;2.90;;;;;23.60;100972.00;;;;2072016;28;20221;-60
2021/06/10 05:00:38;;;;;;;3.30;3.10;;;;;23.70;100975.00;;;;2075586;28;20209;-56
2021/06/10 05:01:38;;;;;;;3.10;2.90;;;;;23.70;100970.00;;;;2079334;28;20213;-56
2021/06/10 05:02:39;;;;;;;3.50;3.30;;;;;23.70;100966.00;;;;2080561;28;20492;-57